Time;durP1;ratioP1;P1;durP2;ratioP2;P2;SDS_P1;SDS_P2;PMS_P1;PMS_P2;Temp;Humidity;BMP_temperature;BMP_pressure;BME280_temperature;BME280_humidity;BME280_pressure;Samples;Min_cycle;Max_cycle;Signal;HPM_P1;HPM_P2
2024/04/07 00:01:12;;;;;;;7.25;2.47;;;;;;;15.20;100.00;70097.88;5089787;28;20048;-47
2024/04/07 00:03:40;;;;;;;6.43;2.67;;;;;;;15.20;100.00;70101.09;5102768;28;20458;-46
2024/04/07 00:06:06;;;;;;;7.30;2.80;;;;;;;15.18;100.00;70098.75;5072676;28;20052;-46
2024/04/07 00:08:44;;;;;;;6.30;2.60;;;;;;;15.18;100.00;70095.53;5086243;28;20046;-48
2024/04/07 00:11:15;;;;;;;7.63;2.70;;;;;;;15.14;100.00;70093.47;5069651;28;20056;-47
2024/04/07 00:13:43;;;;;;;10.32;3.22;;;;;;;15.12;100.00;70085.88;5077474;28;20146;-47
2024/04/07 00:16:09;;;;;;;7.80;3.42;;;;;;;15.12;100.00;70091.13;5083351;28;20041;-46
2024/04/07 00:18:37;;;;;;;8.73;3.20;;;;;;;15.09;100.00;70087.63;5069080;28;20047;-46
2024/04/07 00:21:05;;;;;;;6.72;3.00;;;;;;;15.09;100.00;70085.00;5086089;28;20044;-46
2024/04/07 00:23:33;;;;;;;10.05;2.80;;;;;;;15.05;100.00;70083.53;5088865;28;20044;-46
2024/04/07 00:25:59;;;;;;;8.65;3.33;;;;;;;15.04;100.00;70082.94;5089817;28;20044;-46
2024/04/07 00:28:27;;;;;;;6.45;3.00;;;;;;;15.01;100.00;70079.44;5089572;28;20036;-46
2024/04/07 00:30:53;;;;;;;5.82;2.65;;;;;;;14.99;100.00;70073.88;5088081;28;20418;-48
2024/04/07 00:33:20;;;;;;;9.07;2.90;;;;;;;15.01;100.00;70076.81;5069348;28;20081;-49
2024/04/07 00:35:56;;;;;;;6.25;2.65;;;;;;;15.01;100.00;70076.22;5088735;28;20063;-46
2024/04/07 00:38:23;;;;;;;8.50;3.08;;;;;;;15.02;100.00;70074.75;5085140;28;20048;-47
2024/04/07 00:40:53;;;;;;;6.60;3.25;;;;;;;15.00;100.00;70075.63;5086747;28;20127;-46
2024/04/07 00:43:20;;;;;;;7.10;3.13;;;;;;;14.98;100.00;70073.31;5092973;28;20483;-47
2024/04/07 00:45:46;;;;;;;6.25;3.00;;;;;;;15.00;100.00;70075.63;5074106;28;20051;-48
2024/04/07 00:48:17;;;;;;;7.25;2.97;;;;;;;15.00;100.00;70072.44;5077525;28;20379;-51
2024/04/07 00:50:44;;;;;;;6.95;3.08;;;;;;;15.00;100.00;70078.25;5092965;28;20505;-50
2024/04/07 00:53:14;;;;;;;8.13;3.17;;;;;;;15.01;100.00;70076.22;5093468;28;20082;-50
2024/04/07 00:55:40;;;;;;;6.90;3.20;;;;;;;15.10;100.00;70086.75;5072479;28;20140;-51
2024/04/07 00:58:08;;;;;;;8.20;3.40;;;;;;;15.11;100.00;70082.66;5083671;28;20047;-51
2024/04/07 01:00:35;;;;;;;6.57;3.15;;;;;;;15.12;100.00;70091.72;5090135;28;20140;-51
2024/04/07 01:03:02;;;;;;;9.48;3.40;;;;;;;15.16;100.00;70093.78;5089353;28;20036;-48
2024/04/07 01:05:45;;;;;;;8.63;3.47;;;;;;;15.18;100.00;70092.91;5090094;28;20044;-46
2024/04/07 01:08:27;;;;;;;10.43;3.40;;;;;;;15.18;100.00;70096.13;5092993;28;20068;-47
2024/04/07 01:10:53;;;;;;;6.80;3.50;;;;;;;15.19;100.00;70099.34;5092718;28;20048;-51
2024/04/07 01:13:24;;;;;;;7.65;3.42;;;;;;;15.21;100.00;70093.78;5077010;28;20353;-50
2024/04/07 01:15:50;;;;;;;7.07;3.47;;;;;;;15.20;100.00;70100.50;5079102;28;20040;-51
2024/04/07 01:18:18;;;;;;;8.93;3.90;;;;;;;15.20;100.00;70098.47;5086232;28;20044;-49
2024/04/07 01:20:44;;;;;;;7.05;3.58;;;;;;;15.24;100.00;70102.56;5064298;28;20503;-49
2024/04/07 01:23:16;;;;;;;6.88;3.22;;;;;;;15.27;100.00;70106.09;5092691;28;20056;-47
2024/04/07 01:25:43;;;;;;;9.80;3.70;;;;;;;15.30;100.00;70106.97;5092338;28;20044;-47
2024/04/07 01:28:10;;;;;;;10.10;3.25;;;;;;;15.36;100.00;70116.03;5072260;28;20081;-47
2024/04/07 01:30:36;;;;;;;10.90;3.42;;;;;;;15.36;100.00;70116.63;5088920;28;20048;-47
2024/04/07 01:33:03;;;;;;;8.00;3.35;;;;;;;15.42;100.00;70125.09;5090496;28;20044;-48
2024/04/07 01:35:30;;;;;;;7.15;3.13;;;;;;;15.43;100.00;70126.84;5088628;28;20486;-47
2024/04/07 01:37:57;;;;;;;10.20;3.13;;;;;;;15.44;100.00;70127.47;5083566;28;20407;-47
2024/04/07 01:40:24;;;;;;;8.55;3.17;;;;;;;15.55;100.00;70138.28;5088606;28;20087;-47
2024/04/07 01:42:51;;;;;;;9.68;3.05;;;;;;;15.51;100.00;70135.66;5082752;28;20044;-47
2024/04/07 01:45:18;;;;;;;8.45;2.92;;;;;;;15.53;100.00;70135.38;5090270;28;20036;-47
2024/04/07 01:47:48;;;;;;;9.93;2.70;;;;;;;15.53;100.00;70135.38;5090080;28;20040;-48
2024/04/07 01:50:14;;;;;;;7.45;2.88;;;;;;;15.55;100.00;70135.09;5091848;28;20054;-47
2024/04/07 01:52:41;;;;;;;6.78;2.42;;;;;;;15.53;100.00;70138.59;5090946;28;20594;-46
2024/04/07 01:55:08;;;;;;;7.45;2.45;;;;;;;15.60;100.00;70143.56;5091532;28;20039;-46
2024/04/07 01:57:37;;;;;;;9.30;2.20;;;;;;;15.67;100.00;70154.41;5091401;28;20036;-48
2024/04/07 02:00:07;;;;;;;5.82;1.63;;;;;;;15.79;100.00;70159.38;5091887;28;20032;-47
2024/04/07 02:02:34;;;;;;;8.30;1.80;;;;;;;15.77;100.00;70162.31;5090322;28;20469;-47
2024/04/07 02:05:00;;;;;;;8.52;1.58;;;;;;;15.72;100.00;70157.63;5084033;28;20059;-47
2024/04/07 02:07:27;;;;;;;6.43;1.33;;;;;;;15.68;100.00;70155.56;5091258;28;20522;-48
2024/04/07 02:09:53;;;;;;;7.22;1.50;;;;;;;15.64;100.00;70148.25;5083601;28;20040;-47
2024/04/07 02:12:20;;;;;;;7.72;1.60;;;;;;;15.59;100.00;70145.03;5085042;28;20437;-47
2024/04/07 02:14:48;;;;;;;10.07;1.48;;;;;;;15.58;100.00;70138.59;5090371;28;20044;-47
2024/04/07 02:17:15;;;;;;;5.00;1.35;;;;;;;15.55;100.00;70135.09;5071628;28;20048;-45
2024/04/07 02:19:41;;;;;;;5.07;1.45;;;;;;;15.51;100.00;70130.97;5088267;28;20044;-46
2024/04/07 02:22:09;;;;;;;7.25;1.70;;;;;;;15.47;100.00;70128.91;5082331;28;20090;-48
2024/04/07 02:24:35;;;;;;;4.70;1.27;;;;;;;15.46;100.00;70127.16;5076027;28;20055;-47
2024/04/07 02:27:03;;;;;;;5.45;1.25;;;;;;;15.45;100.00;70126.00;5086735;28;20071;-46
2024/04/07 02:29:29;;;;;;;4.18;1.48;;;;;;;15.42;100.00;70120.44;5091118;28;20036;-48
2024/04/07 02:31:57;;;;;;;6.60;1.40;;;;;;;15.38;100.00;70116.34;5091118;28;20516;-46
2024/04/07 02:34:23;;;;;;;5.07;1.40;;;;;;;15.42;100.00;70125.09;5090902;28;20044;-50
2024/04/07 02:36:50;;;;;;;5.97;1.33;;;;;;;15.38;100.00;70116.34;5090845;28;20360;-48
2024/04/07 02:39:17;;;;;;;3.30;1.20;;;;;;;15.36;100.00;70119.25;5091058;28;20077;-46
2024/04/07 02:41:46;;;;;;;4.88;1.40;;;;;;;15.30;100.00;70109.03;5090968;28;20036;-53
2024/04/07 02:44:12;;;;;;;3.72;0.98;;;;;;;15.29;100.00;70105.22;5086624;28;20055;-53
2024/04/07 02:49:25;;;;;;;4.43;1.25;;;;;;;15.19;100.00;70091.47;5088032;28;20055;-50
2024/04/07 02:51:52;;;;;;;5.03;1.17;;;;;;;15.16;100.00;70096.41;5073789;28;20445;-48
2024/04/07 02:54:19;;;;;;;4.90;1.20;;;;;;;15.14;100.00;70090.84;5091026;28;20044;-47
2024/04/07 02:56:46;;;;;;;4.43;1.10;;;;;;;15.15;100.00;70095.25;5090854;28;20133;-51
2024/04/07 02:59:13;;;;;;;4.03;1.20;;;;;;;15.13;100.00;70087.06;5090559;28;20055;-47
2024/04/07 03:01:39;;;;;;;6.70;1.63;;;;;;;15.09;100.00;70085.56;5089868;28;20051;-47
2024/04/07 03:04:06;;;;;;;6.47;1.33;;;;;;;15.06;100.00;70079.44;5086452;28;20044;-48
2024/04/07 03:06:33;;;;;;;6.57;1.42;;;;;;;15.04;100.00;70079.72;5087353;28;20036;-48
2024/04/07 03:09:00;;;;;;;5.53;1.30;;;;;;;15.03;100.00;70079.13;5090612;28;20044;-47
2024/04/07 03:11:28;;;;;;;4.68;1.23;;;;;;;15.00;100.00;70073.00;5073642;28;20059;-47
2024/04/07 03:13:54;;;;;;;6.07;1.33;;;;;;;14.99;100.00;70076.50;5062187;28;20055;-50
2024/04/07 03:16:21;;;;;;;4.43;1.00;;;;;;;14.97;100.00;70072.13;5072044;28;20037;-47
2024/04/07 03:18:47;;;;;;;2.97;1.15;;;;;;;14.95;100.00;70066.56;5087224;28;20059;-47
2024/04/07 03:21:14;;;;;;;4.15;1.15;;;;;;;14.91;100.00;70062.47;5089947;28;20050;-48
2024/04/07 03:24:02;;;;;;;4.50;0.93;;;;;;;14.92;100.00;70063.63;5089873;28;20040;-50
2024/04/07 03:26:30;;;;;;;2.55;0.90;;;;;;;14.92;100.00;70066.25;5090430;28;20093;-47
2024/04/07 03:28:56;;;;;;;3.08;0.80;;;;;;;14.89;100.00;70062.75;5090198;28;20511;-47
2024/04/07 03:31:23;;;;;;;5.05;1.17;;;;;;;14.88;100.00;70058.94;5076458;28;20048;-48
2024/04/07 03:33:49;;;;;;;2.78;0.80;;;;;;;14.85;100.00;70061.28;5087572;28;20036;-46
2024/04/07 03:36:16;;;;;;;7.05;1.00;;;;;;;14.83;100.00;70056.31;5089548;28;20268;-46
2024/04/07 03:38:47;;;;;;;2.67;0.90;;;;;;;14.82;100.00;70057.78;5089571;28;20512;-45
2024/04/07 03:41:14;;;;;;;4.72;0.90;;;;;;;14.81;100.00;70053.38;5089802;28;20085;-45
2024/04/07 03:43:42;;;;;;;3.85;1.00;;;;;;;14.85;100.00;70058.66;5087007;28;20095;-47
2024/04/07 03:46:10;;;;;;;3.92;1.00;;;;;;;14.85;100.00;70061.28;5079474;28;20411;-47
2024/04/07 03:48:37;;;;;;;3.95;1.00;;;;;;;14.83;100.00;70058.34;5067095;28;20198;-45
2024/04/07 03:51:06;;;;;;;3.83;1.00;;;;;;;14.87;100.00;70060.41;5084157;28;20153;-46
2024/04/07 03:53:33;;;;;;;4.13;0.90;;;;;;;14.87;100.00;70058.38;5089717;28;20040;-46
2024/04/07 03:56:02;;;;;;;3.13;0.85;;;;;;;14.85;100.00;70056.03;5089203;28;20119;-46
2024/04/07 03:58:28;;;;;;;2.40;0.85;;;;;;;14.88;100.00;70064.78;5089649;28;20044;-47
2024/04/07 04:00:55;;;;;;;4.55;1.10;;;;;;;14.94;100.00;70068.59;5078458;28;20523;-48
2024/04/07 04:03:21;;;;;;;4.53;0.80;;;;;;;14.96;100.00;70070.38;5086548;28;20411;-45
2024/04/07 04:05:54;;;;;;;4.18;1.00;;;;;;;14.92;100.00;70068.88;5088572;28;20063;-50
2024/04/07 04:08:21;;;;;;;6.80;1.10;;;;;;;14.94;100.00;70071.22;5089847;28;20036;-49
2024/04/07 04:10:48;;;;;;;4.30;1.00;;;;;;;14.95;100.00;70072.41;5089288;28;20083;-46
2024/04/07 04:13:16;;;;;;;4.00;0.70;;;;;;;14.92;100.00;70065.69;5086539;28;20043;-49
2024/04/07 04:15:45;;;;;;;3.35;0.88;;;;;;;14.93;100.00;70061.59;5082235;28;20792;-47
2024/04/07 04:18:12;;;;;;;3.33;0.80;;;;;;;14.95;100.00;70067.13;5090501;28;20040;-47
2024/04/07 04:20:39;;;;;;;4.32;1.10;;;;;;;14.95;100.00;70067.13;5090288;28;20046;-46
2024/04/07 04:23:05;;;;;;;2.35;0.70;;;;;;;14.98;100.00;70075.94;5089861;28;20040;-51
2024/04/07 04:25:33;;;;;;;3.45;0.80;;;;;;;15.01;100.00;70079.44;5089782;28;20036;-49
2024/04/07 04:27:59;;;;;;;3.97;1.00;;;;;;;15.00;100.00;70077.69;5093772;28;20601;-52
2024/04/07 04:30:28;;;;;;;1.83;0.60;;;;;;;15.00;100.00;70078.25;5110411;28;20035;-52
2024/04/07 04:32:54;;;;;;;2.65;0.68;;;;;;;15.02;100.00;70074.75;5080426;28;20035;-48
2024/04/07 04:35:21;;;;;;;2.67;0.70;;;;;;;14.99;100.00;70074.44;5090055;28;20055;-49
2024/04/07 04:37:47;;;;;;;3.15;0.60;;;;;;;14.99;100.00;70071.25;5093238;28;20089;-49
2024/04/07 04:40:14;;;;;;;2.88;0.60;;;;;;;14.99;100.00;70074.44;5084030;28;20105;-47
2024/04/07 04:42:40;;;;;;;2.05;0.80;;;;;;;15.03;100.00;70076.50;5093156;28;20425;-49
2024/04/07 04:45:08;;;;;;;1.95;0.60;;;;;;;15.05;100.00;70080.88;5084871;28;20498;-52
2024/04/07 04:47:35;;;;;;;2.33;0.52;;;;;;;15.01;100.00;70076.81;5072905;28;20127;-51
2024/04/07 04:50:03;;;;;;;2.42;0.60;;;;;;;15.01;100.00;70081.47;5088782;28;20040;-47
2024/04/07 04:52:31;;;;;;;3.08;0.50;;;;;;;15.03;100.00;70081.19;5093016;28;20040;-45
2024/04/07 04:54:59;;;;;;;2.60;0.75;;;;;;;15.06;100.00;70082.06;5092806;28;20043;-49
2024/04/07 04:57:25;;;;;;;0.88;0.50;;;;;;;15.07;100.00;70080.03;5093070;28;20051;-46
2024/04/07 04:59:53;;;;;;;2.70;0.57;;;;;;;15.04;100.00;70079.72;5080476;28;20041;-47
2024/04/07 05:02:20;;;;;;;3.83;0.80;;;;;;;15.03;100.00;70078.56;5090589;28;20043;-45
2024/04/07 05:04:51;;;;;;;1.38;0.50;;;;;;;15.07;100.00;70082.66;5084641;28;20388;-45
2024/04/07 05:07:17;;;;;;;2.20;0.50;;;;;;;15.09;100.00;70085.56;5092188;28;20058;-46
2024/04/07 05:09:46;;;;;;;2.60;0.57;;;;;;;15.05;100.00;70080.88;5092691;28;20454;-48
2024/04/07 05:12:13;;;;;;;3.22;0.70;;;;;;;15.05;100.00;70078.25;5090168;28;20044;-46
2024/04/07 05:14:40;;;;;;;1.50;0.50;;;;;;;15.06;100.00;70081.50;5092845;28;20052;-48
2024/04/07 05:17:08;;;;;;;3.03;0.68;;;;;;;15.03;100.00;70081.75;5087093;28;20094;-45
2024/04/07 05:19:35;;;;;;;2.17;0.57;;;;;;;15.07;100.00;70085.88;5092597;28;20546;-46
2024/04/07 05:22:03;;;;;;;1.98;0.50;;;;;;;15.06;100.00;70078.88;5091764;28;20066;-46
2024/04/07 05:24:31;;;;;;;1.85;0.50;;;;;;;15.06;100.00;70084.69;5090586;28;20047;-49
2024/04/07 05:26:58;;;;;;;2.33;0.57;;;;;;;15.06;100.00;70084.13;5088515;28;20557;-47
2024/04/07 05:29:27;;;;;;;2.58;0.63;;;;;;;15.04;100.00;70079.72;5091699;28;20043;-47
2024/04/07 05:31:53;;;;;;;1.02;0.30;;;;;;;15.03;100.00;70079.13;5074863;28;20036;-48
2024/04/07 05:34:20;;;;;;;4.47;0.70;;;;;;;15.03;100.00;70081.75;5089747;28;20478;-47
2024/04/07 05:36:46;;;;;;;1.92;0.60;;;;;;;15.01;100.00;70079.44;5089591;28;20051;-48
2024/04/07 05:39:15;;;;;;;1.00;0.40;;;;;;;15.00;100.00;70078.25;5060249;28;20048;-49
2024/04/07 05:41:42;;;;;;;0.60;0.40;;;;;;;14.99;100.00;70073.88;5074644;28;20036;-46
2024/04/07 05:44:09;;;;;;;2.08;0.50;;;;;;;14.97;100.00;70068.91;5091596;28;20039;-46
2024/04/07 05:46:35;;;;;;;3.85;0.60;;;;;;;14.98;100.00;70075.94;5074703;28;20064;-46
2024/04/07 05:49:02;;;;;;;2.65;0.40;;;;;;;14.98;100.00;70075.94;5089141;28;20540;-46
2024/04/07 05:51:28;;;;;;;2.28;0.57;;;;;;;14.98;100.00;70073.31;5091748;28;20135;-48
2024/04/07 05:53:55;;;;;;;2.67;0.50;;;;;;;14.96;100.00;70073.00;5090279;28;20716;-46
2024/04/07 05:56:23;;;;;;;3.15;0.45;;;;;;;14.97;100.00;70069.50;5087923;28;20518;-46
2024/04/07 05:58:50;;;;;;;2.25;0.57;;;;;;;14.94;100.00;70068.59;5073926;28;20044;-48
2024/04/07 06:01:16;;;;;;;2.22;0.40;;;;;;;14.96;100.00;70068.31;5091618;28;20055;-47
2024/04/07 06:03:44;;;;;;;2.55;0.60;;;;;;;14.98;100.00;70073.31;5075787;28;20044;-49
2024/04/07 06:06:10;;;;;;;1.63;0.70;;;;;;;14.98;100.00;70073.31;5070154;28;20050;-49
2024/04/07 06:08:37;;;;;;;4.00;0.60;;;;;;;14.96;100.00;70073.00;5091367;28;20089;-49
2024/04/07 06:11:04;;;;;;;2.20;0.52;;;;;;;14.99;100.00;70071.25;5091082;28;20410;-51
2024/04/07 06:13:33;;;;;;;3.20;0.60;;;;;;;15.01;100.00;70076.22;5085291;28;20052;-48
2024/04/07 06:15:59;;;;;;;2.53;0.65;;;;;;;14.98;100.00;70075.94;5071196;28;20052;-49
2024/04/07 06:18:26;;;;;;;1.90;0.40;;;;;;;14.99;100.00;70076.50;5069656;28;20063;-48
2024/04/07 06:20:53;;;;;;;1.65;0.52;;;;;;;14.97;100.00;70071.53;5074459;28;20082;-48
2024/04/07 06:23:21;;;;;;;1.52;0.57;;;;;;;15.00;100.00;70075.06;5074288;28;20051;-50
2024/04/07 06:25:47;;;;;;;2.97;0.57;;;;;;;15.02;100.00;70080.00;5091384;28;20066;-48
2024/04/07 06:28:14;;;;;;;1.45;0.43;;;;;;;15.04;100.00;70077.09;5091145;28;20036;-49
2024/04/07 06:30:41;;;;;;;2.15;0.68;;;;;;;15.02;100.00;70075.34;5091161;28;20052;-51
2024/04/07 06:33:08;;;;;;;3.08;0.70;;;;;;;14.98;100.00;70072.69;5090744;28;20119;-51
2024/04/07 06:35:35;;;;;;;4.15;0.75;;;;;;;15.01;100.00;70079.44;5091423;28;20097;-51
2024/04/07 06:38:02;;;;;;;5.32;0.80;;;;;;;14.98;100.00;70075.94;5090606;28;20036;-49
2024/04/07 06:40:28;;;;;;;2.42;0.50;;;;;;;14.96;100.00;70070.94;5089928;28;20518;-48
2024/04/07 06:42:55;;;;;;;4.72;0.60;;;;;;;14.97;100.00;70071.53;5072976;28;20045;-47
2024/04/07 06:45:21;;;;;;;2.08;0.70;;;;;;;14.95;100.00;70069.19;5089857;28;20044;-47
2024/04/07 06:47:50;;;;;;;1.70;0.60;;;;;;;14.99;100.00;70077.09;5090278;28;20040;-47
2024/04/07 06:50:16;;;;;;;5.45;0.77;;;;;;;15.04;100.00;70077.09;5073907;28;20495;-47
2024/04/07 06:52:43;;;;;;;3.03;0.68;;;;;;;15.04;100.00;70077.69;5091127;28;20505;-48
2024/04/07 06:55:09;;;;;;;1.35;0.65;;;;;;;15.07;100.00;70085.88;5087099;28;20395;-47
2024/04/07 06:57:36;;;;;;;2.78;0.60;;;;;;;15.12;100.00;70089.09;5087858;28;20403;-47
2024/04/07 07:00:04;;;;;;;2.13;0.70;;;;;;;15.12;100.00;70088.50;5080071;28;20048;-48
2024/04/07 07:02:31;;;;;;;2.65;0.60;;;;;;;15.12;100.00;70089.09;5087989;28;20042;-46
2024/04/07 07:04:59;;;;;;;3.05;0.70;;;;;;;15.14;100.00;70085.59;5086771;28;20513;-47
2024/04/07 07:07:26;;;;;;;3.95;0.80;;;;;;;15.21;100.00;70099.06;5076941;28;20036;-46
2024/04/07 07:09:52;;;;;;;2.75;0.70;;;;;;;15.27;100.00;70108.13;5073325;28;20102;-46
2024/04/07 07:12:19;;;;;;;1.85;0.60;;;;;;;15.33;100.00;70115.72;5090318;28;20051;-48
2024/04/07 07:14:45;;;;;;;6.50;0.80;;;;;;;15.37;100.00;70117.22;5090328;28;20051;-48
2024/04/07 07:17:13;;;;;;;1.63;0.47;;;;;;;15.42;100.00;70125.09;5089774;28;20524;-46
2024/04/07 07:19:39;;;;;;;2.03;0.70;;;;;;;15.44;100.00;70127.47;5090066;28;20058;-48
2024/04/07 07:22:07;;;;;;;2.38;0.75;;;;;;;15.40;100.00;70120.16;5089854;28;20380;-48
2024/04/07 07:24:34;;;;;;;2.63;0.70;;;;;;;15.37;100.00;70115.16;5089903;28;20047;-48
2024/04/07 07:27:01;;;;;;;1.60;0.60;;;;;;;15.37;100.00;70119.84;5090199;28;20039;-47
2024/04/07 07:29:27;;;;;;;3.65;0.75;;;;;;;15.36;100.00;70119.25;5072565;28;20070;-45
2024/04/07 07:31:56;;;;;;;3.30;0.80;;;;;;;15.40;100.00;70120.16;5086750;28;20058;-49
2024/04/07 07:34:26;;;;;;;2.78;0.70;;;;;;;15.40;100.00;70117.50;5087673;28;20090;-46
2024/04/07 07:36:53;;;;;;;2.83;0.70;;;;;;;15.38;100.00;70121.59;5089599;28;20040;-46
2024/04/07 07:39:21;;;;;;;4.93;0.90;;;;;;;15.41;100.00;70121.91;5089939;28;20036;-46
2024/04/07 07:41:48;;;;;;;2.92;0.80;;;;;;;15.46;100.00;70127.16;5090327;28;20052;-46
2024/04/07 07:44:14;;;;;;;3.58;0.80;;;;;;;15.49;100.00;70133.31;5056503;28;20154;-46
2024/04/07 07:46:41;;;;;;;2.63;0.80;;;;;;;15.51;100.00;70133.03;5089990;28;20040;-46
2024/04/07 07:49:07;;;;;;;3.50;0.90;;;;;;;15.49;100.00;70130.69;5089745;28;20050;-46
2024/04/07 07:51:34;;;;;;;2.45;0.80;;;;;;;15.54;100.00;70136.53;5075825;28;20070;-47
2024/04/07 07:54:01;;;;;;;2.15;0.70;;;;;;;15.70;100.00;70157.34;5077361;28;20547;-46
2024/04/07 07:56:29;;;;;;;5.20;0.90;;;;;;;15.93;100.00;70183.72;5077042;28;20044;-47
2024/04/07 07:58:55;;;;;;;2.55;0.82;;;;;;;16.10;100.00;70202.47;5077037;28;20058;-47
2024/04/07 08:01:22;;;;;;;4.13;0.98;;;;;;;16.36;100.00;70229.72;5086460;28;20048;-46
2024/04/07 08:03:48;;;;;;;4.50;0.80;;;;;;;16.59;100.00;70255.53;5077073;28;20063;-47
2024/04/07 08:06:19;;;;;;;2.80;0.77;;;;;;;16.77;100.00;70276.63;5083121;28;20040;-46
2024/04/07 08:08:45;;;;;;;3.20;0.93;;;;;;;16.95;100.00;70297.19;5076871;28;20060;-47
2024/04/07 08:11:12;;;;;;;5.78;1.13;;;;;;;17.12;100.00;70316.53;5093381;28;20548;-47
2024/04/07 08:13:39;;;;;;;4.13;1.10;;;;;;;17.28;100.00;70334.13;5076288;28;20409;-46
2024/04/07 08:16:08;;;;;;;5.93;1.05;;;;;;;17.35;100.00;70345.56;5085868;28;20040;-47
2024/04/07 08:18:36;;;;;;;5.15;0.98;;;;;;;17.51;100.00;70363.75;5093376;28;20442;-48
2024/04/07 08:21:04;;;;;;;4.10;0.95;;;;;;;17.53;100.00;70366.09;5091517;28;20052;-48
2024/04/07 08:23:31;;;;;;;5.15;1.15;;;;;;;17.64;100.00;70372.53;5092189;28;20058;-48
2024/04/07 08:25:58;;;;;;;3.38;0.80;;;;;;;17.81;100.00;70391.91;5089517;28;20044;-47
2024/04/07 08:28:26;;;;;;;4.45;0.82;;;;;;;17.95;100.00;70413.63;5092450;28;20048;-48
2024/04/07 08:30:54;;;;;;;6.03;1.10;;;;;;;18.12;100.00;70429.78;5093885;28;20044;-48
2024/04/07 08:33:20;;;;;;;6.72;1.17;;;;;;;18.19;100.00;70440.66;5076354;28;20076;-48
2024/04/07 08:35:50;;;;;;;3.30;1.20;;;;;;;18.36;100.00;70455.31;5093748;28;20529;-50
2024/04/07 08:38:17;;;;;;;6.90;1.10;;;;;;;18.45;100.00;70465.28;5093437;28;20472;-49
2024/04/07 08:40:46;;;;;;;3.45;1.10;;;;;;;18.39;100.00;70458.25;5093493;28;20069;-50
2024/04/07 08:43:13;;;;;;;7.00;1.25;;;;;;;18.38;100.00;70460.31;5093225;28;20072;-48
2024/04/07 08:45:41;;;;;;;3.95;1.08;;;;;;;18.45;100.00;70467.94;5076034;28;20051;-50
2024/04/07 08:48:11;;;;;;;5.20;1.20;;;;;;;18.63;100.00;70490.53;5093183;28;20052;-51
2024/04/07 08:50:39;;;;;;;3.30;1.05;;;;;;;18.61;100.00;70488.78;5093380;28;20056;-52
2024/04/07 08:53:08;;;;;;;3.90;1.10;;;;;;;18.61;100.00;70486.13;5093306;28;20390;-52
2024/04/07 08:55:37;;;;;;;4.20;0.90;;;;;;;18.87;100.00;70516.09;5093284;28;20055;-48
2024/04/07 08:58:04;;;;;;;7.82;1.10;;;;;;;19.05;100.00;70539.28;5093005;28;20052;-52
2024/04/07 09:00:32;;;;;;;2.20;0.80;;;;;;;19.03;100.00;70534.31;5093301;28;20043;-51
2024/04/07 09:03:01;;;;;;;5.03;1.05;;;;;;;19.08;100.00;70540.16;5092379;28;20128;-55
2024/04/07 09:05:29;;;;;;;4.65;1.00;;;;;;;19.14;100.00;70549.28;5091230;28;20043;-50
2024/04/07 09:07:56;;;;;;;5.95;1.48;;;;;;;19.23;100.00;70556.63;5071299;28;20044;-51
2024/04/07 09:10:23;;;;;;;5.38;1.20;;;;;;;19.30;100.00;70562.19;5089575;28;20510;-52
2024/04/07 09:12:51;;;;;;;4.68;1.30;;;;;;;19.44;100.00;70586.00;5089561;28;20044;-51
2024/04/07 09:15:18;;;;;;;5.47;1.20;;;;;;;19.58;100.00;70593.94;5089238;28;20032;-51
2024/04/07 09:17:45;;;;;;;6.00;1.10;;;;;;;19.73;100.00;70611.53;5072389;28;20090;-55
2024/04/07 09:20:19;;;;;;;5.25;1.10;;;;;;;19.69;100.00;70608.91;5091352;28;20462;-55
2024/04/07 09:22:47;;;;;;;3.47;1.10;;;;;;;19.68;100.00;70605.66;5092550;28;20499;-55
2024/04/07 09:25:14;;;;;;;5.00;1.10;;;;;;;19.57;100.00;70598.03;5088553;28;20075;-55
2024/04/07 09:27:41;;;;;;;3.05;0.90;;;;;;;19.57;100.00;70595.41;5089484;28;20047;-50
2024/04/07 09:30:09;;;;;;;4.07;0.90;;;;;;;19.54;100.00;70594.53;5089097;28;20044;-51
2024/04/07 09:32:35;;;;;;;3.45;0.90;;;;;;;19.40;100.00;70579.25;5089286;28;20046;-47
2024/04/07 09:35:04;;;;;;;4.85;1.10;;;;;;;19.48;100.00;70582.16;5088793;28;20479;-50
2024/04/07 09:37:30;;;;;;;4.28;1.00;;;;;;;19.34;100.00;70566.88;5091327;28;20056;-52
2024/04/07 09:39:58;;;;;;;3.40;0.85;;;;;;;19.47;100.00;70588.94;5092295;28;20032;-51
2024/04/07 09:42:28;;;;;;;6.10;1.10;;;;;;;19.48;100.00;70590.09;5091924;28;20483;-48
2024/04/07 09:44:57;;;;;;;4.55;1.00;;;;;;;19.61;100.00;70602.16;5088275;28;20048;-52
2024/04/07 09:47:27;;;;;;;4.65;1.10;;;;;;;19.74;100.00;70614.78;5088891;28;20051;-51
2024/04/07 09:50:01;;;;;;;4.10;0.95;;;;;;;19.89;100.00;70629.78;5088456;28;20052;-51
2024/04/07 09:52:31;;;;;;;6.07;1.58;;;;;;;19.97;100.00;70640.66;5088095;28;20047;-47
2024/04/07 09:55:06;;;;;;;3.80;0.93;;;;;;;19.95;99.73;70638.91;5091674;28;20521;-49
2024/04/07 09:57:32;;;;;;;4.30;1.00;;;;;;;19.91;100.00;70631.53;5092051;28;20503;-48
2024/04/07 10:00:00;;;;;;;4.63;1.00;;;;;;;19.97;100.00;70643.31;5089112;28;20066;-48
2024/04/07 10:02:28;;;;;;;4.10;0.90;;;;;;;20.03;96.29;70648.28;5088844;28;20776;-47
2024/04/07 10:04:55;;;;;;;5.80;1.10;;;;;;;19.99;94.26;70643.59;5091368;28;20101;-47
2024/04/07 10:07:23;;;;;;;2.53;0.95;;;;;;;19.90;94.51;70635.66;5091789;28;20062;-47
2024/04/07 10:09:53;;;;;;;5.75;1.13;;;;;;;19.94;95.00;70637.72;5091830;28;20544;-47
2024/04/07 10:12:28;;;;;;;3.90;0.77;;;;;;;19.96;95.77;70639.47;5090514;28;20067;-47
2024/04/07 10:14:55;;;;;;;4.80;0.93;;;;;;;19.96;97.89;70640.06;5086852;28;20066;-49
2024/04/07 10:17:23;;;;;;;4.20;1.00;;;;;;;19.99;100.00;70640.94;5091566;28;20048;-47
2024/04/07 10:19:50;;;;;;;3.63;0.85;;;;;;;20.02;100.00;70644.47;5091385;28;20048;-47
2024/04/07 10:22:16;;;;;;;4.80;0.95;;;;;;;20.08;93.84;70651.53;5091506;28;20043;-48
2024/04/07 10:24:47;;;;;;;5.82;1.10;;;;;;;20.25;91.28;70676.22;5091280;28;20464;-48
2024/04/07 10:27:21;;;;;;;3.30;0.77;;;;;;;20.46;88.86;70699.72;5091335;28;20052;-49
2024/04/07 10:29:54;;;;;;;3.10;0.95;;;;;;;20.53;88.42;70707.38;5091462;28;20044;-47
2024/04/07 10:32:26;;;;;;;5.07;0.98;;;;;;;20.76;86.24;70731.81;5091488;28;20067;-47
2024/04/07 10:35:00;;;;;;;2.85;0.90;;;;;;;21.13;81.97;70772.94;5074196;28;20040;-50
2024/04/07 10:37:26;;;;;;;2.70;0.75;;;;;;;20.99;76.17;70757.06;5091335;28;20039;-50
2024/04/07 10:39:55;;;;;;;3.00;0.70;;;;;;;21.01;75.95;70762.69;5090995;28;20495;-50
2024/04/07 10:42:22;;;;;;;3.35;0.95;;;;;;;20.92;79.61;70750.00;5090555;28;20040;-49
2024/04/07 10:44:50;;;;;;;3.28;0.82;;;;;;;21.14;75.49;70774.72;5087749;28;20387;-49
2024/04/07 10:47:17;;;;;;;2.70;1.05;;;;;;;21.38;75.30;70804.44;5087401;28;20060;-48
2024/04/07 10:49:44;;;;;;;3.92;1.02;;;;;;;21.62;73.11;70832.09;5087625;28;20044;-52
2024/04/07 10:52:15;;;;;;;3.60;0.90;;;;;;;21.80;70.33;70852.09;5089420;28;20044;-48
2024/04/07 10:54:42;;;;;;;3.80;0.90;;;;;;;22.07;74.17;70878.56;5087059;28;20044;-50
2024/04/07 10:57:12;;;;;;;4.47;0.90;;;;;;;22.23;76.22;70901.53;5088171;28;20036;-50
2024/04/07 10:59:39;;;;;;;3.90;0.85;;;;;;;22.36;68.48;70914.22;5089804;28;20039;-52
2024/04/07 11:02:08;;;;;;;3.15;0.90;;;;;;;22.54;65.71;70936.88;5087109;28;20059;-51
2024/04/07 11:04:36;;;;;;;3.65;0.85;;;;;;;22.29;62.50;70909.19;5089718;28;20085;-52
2024/04/07 11:07:03;;;;;;;3.30;0.80;;;;;;;22.35;63.46;70915.69;5090585;28;20093;-51
2024/04/07 11:09:31;;;;;;;3.35;0.88;;;;;;;22.36;60.35;70911.56;5090689;28;20116;-49
2024/04/07 11:11:59;;;;;;;2.25;0.80;;;;;;;22.42;57.71;70921.25;5090421;28;20047;-52
2024/04/07 11:14:27;;;;;;;4.82;0.95;;;;;;;22.83;55.88;70964.53;5090401;28;20046;-49
2024/04/07 11:16:54;;;;;;;2.40;0.75;;;;;;;22.99;55.40;70982.78;5090482;28;20047;-52
2024/04/07 11:19:26;;;;;;;3.58;0.98;;;;;;;23.19;54.12;71011.69;5089807;28;20032;-51
2024/04/07 11:21:53;;;;;;;4.13;0.88;;;;;;;23.51;51.49;71048.19;5089927;28;20047;-49
2024/04/07 11:24:20;;;;;;;4.60;0.93;;;;;;;23.87;53.19;71089.44;5089941;28;20317;-50
2024/04/07 11:26:47;;;;;;;4.85;0.80;;;;;;;23.83;47.87;71084.72;5089602;28;20067;-51
2024/04/07 11:29:17;;;;;;;3.75;1.05;;;;;;;24.05;48.58;71107.44;5088759;28;20566;-51
2024/04/07 11:31:49;;;;;;;4.60;1.10;;;;;;;23.70;46.52;71069.41;5087045;28;20047;-51